Time;durP1;ratioP1;P1;durP2;ratioP2;P2;SDS_P1;SDS_P2;PMS_P1;PMS_P2;Temp;Humidity;BMP_temperature;BMP_pressure;BME280_temperature;BME280_humidity;BME280_pressure;Samples;Min_cycle;Max_cycle;Signal;HPM_P1;HPM_P2
2022/06/02 00:01:58;;;;;;;17.90;12.75;;;9.20;99.90;;;;;;4924243;29;20051;-85
2022/06/02 00:04:37;;;;;;;14.68;12.05;;;9.20;99.90;;;;;;4956041;29;20126;-85
2022/06/02 00:07:12;;;;;;;14.38;12.32;;;9.10;99.90;;;;;;4940290;29;20073;-85
2022/06/02 00:10:02;;;;;;;13.65;12.25;;;9.10;99.90;;;;;;4955678;29;20076;-85
2022/06/02 00:12:59;;;;;;;14.30;12.30;;;9.10;99.90;;;;;;4955315;29;20115;-85
2022/06/02 00:15:37;;;;;;;15.30;12.75;;;9.00;99.90;;;;;;4956600;28;20098;-85
2022/06/02 00:18:19;;;;;;;12.82;11.52;;;8.90;99.90;;;;;;4939368;29;20061;-85
2022/06/02 00:21:12;;;;;;;19.08;12.85;;;8.90;99.90;;;;;;4939135;29;20365;-85
2022/06/02 00:23:47;;;;;;;14.80;11.80;;;8.90;99.90;;;;;;4939056;29;20103;-85
2022/06/02 00:26:40;;;;;;;12.73;11.40;;;8.90;99.90;;;;;;4955229;29;20426;-85
2022/06/02 00:29:36;;;;;;;18.42;12.00;;;8.80;99.90;;;;;;4954895;29;20506;-85
2022/06/02 00:32:13;;;;;;;13.05;11.65;;;8.60;99.90;;;;;;4939394;29;20137;-85
2022/06/02 00:35:10;;;;;;;16.85;13.70;;;8.80;99.90;;;;;;4955183;29;20067;-85
2022/06/02 00:37:41;;;;;;;;;;;8.80;99.90;;;;;;4939419;29;20543;-85
2022/06/02 00:40:09;;;;;;;14.13;12.63;;;8.70;99.90;;;;;;4954978;29;20297;-85
2022/06/02 00:43:05;;;;;;;15.95;13.55;;;8.70;99.90;;;;;;4954879;29;20066;-85
2022/06/02 00:45:35;;;;;;;16.17;13.07;;;8.70;99.90;;;;;;4955008;29;20101;-85
2022/06/02 00:48:03;;;;;;;18.00;14.88;;;;;;;;;;4955054;29;20047;-86
2022/06/02 00:50:50;;;;;;;23.48;14.70;;;8.60;99.90;;;;;;4954804;29;20059;-85
2022/06/02 00:53:34;;;;;;;18.20;14.05;;;8.60;99.90;;;;;;4955189;29;20406;-85
2022/06/02 01:02:16;;;;;;;14.73;13.25;;;8.40;99.90;;;;;;4950075;28;20109;-63
2022/06/02 01:04:43;;;;;;;15.68;13.98;;;8.30;99.90;;;;;;4954773;29;20055;-63
2022/06/02 01:07:23;;;;;;;15.23;13.63;;;8.30;99.90;;;;;;4954415;29;20495;-63
2022/06/02 01:10:05;;;;;;;15.30;13.65;;;8.40;99.90;;;;;;4954149;29;20510;-63
2022/06/02 01:12:55;;;;;;;16.83;13.07;;;8.00;99.90;;;;;;4954275;29;20073;-62
2022/06/02 01:15:42;;;;;;;16.30;14.32;;;8.40;99.90;;;;;;4954213;29;20517;-62
2022/06/02 01:18:32;;;;;;;15.27;13.68;;;8.50;99.90;;;;;;4954497;29;20135;-63
2022/06/02 01:21:10;;;;;;;14.73;13.23;;;8.10;99.90;;;;;;4921147;29;20482;-62
2022/06/02 01:23:36;;;;;;;16.17;13.85;;;8.40;99.90;;;;;;4954252;29;20051;-62
2022/06/02 01:26:27;;;;;;;13.90;12.40;;;8.50;99.90;;;;;;4953945;29;20130;-62
2022/06/02 01:28:59;;;;;;;15.40;12.80;;;8.00;99.90;;;;;;4937082;29;20047;-62
2022/06/02 01:31:52;;;;;;;13.77;12.38;;;8.40;99.90;;;;;;4954183;29;20054;-62
2022/06/02 01:34:35;;;;;;;15.68;13.30;;;8.50;99.90;;;;;;4953912;29;20062;-63
2022/06/02 01:37:23;;;;;;;16.73;12.88;;;8.20;99.90;;;;;;4953905;29;20058;-63
2022/06/02 01:40:17;;;;;;;14.27;12.75;;;8.10;99.90;;;;;;4954126;29;20546;-62
2022/06/02 01:42:54;;;;;;;14.73;12.40;;;7.90;99.90;;;;;;4936942;29;20082;-63
2022/06/02 01:45:49;;;;;;;13.63;12.18;;;8.00;99.90;;;;;;4936856;29;20051;-63
2022/06/02 01:48:29;;;;;;;14.63;13.00;;;8.30;99.90;;;;;;4953734;29;20043;-63
2022/06/02 01:51:24;;;;;;;14.90;12.70;;;8.00;99.90;;;;;;4953654;29;20079;-63
2022/06/02 01:54:27;;;;;;;17.10;13.15;;;8.10;99.90;;;;;;4953579;29;20062;-63
2022/06/02 01:57:10;;;;;;;15.20;12.85;;;7.70;99.90;;;;;;4953621;29;20109;-63
2022/06/02 02:00:00;;;;;;;14.10;12.27;;;7.60;99.90;;;;;;4953923;29;20234;-63
2022/06/02 02:02:54;;;;;;;20.25;13.98;;;8.20;99.90;;;;;;4951394;29;20055;-63
2022/06/02 02:05:53;;;;;;;17.90;14.40;;;7.90;99.90;;;;;;4954020;29;20148;-63
2022/06/02 02:08:35;;;;;;;14.57;12.98;;;7.80;99.90;;;;;;4954004;29;20058;-62
2022/06/02 02:11:15;;;;;;;13.10;11.70;;;7.90;99.90;;;;;;4953775;29;20055;-62
2022/06/02 02:13:41;;;;;;;14.05;12.25;;;7.80;99.90;;;;;;4952539;29;20113;-62
2022/06/02 02:16:09;;;;;;;15.45;13.52;;;8.00;99.90;;;;;;4953750;29;20513;-61
2022/06/02 02:19:06;;;;;;;13.70;12.02;;;7.70;99.90;;;;;;4953273;29;20047;-62
2022/06/02 02:22:09;;;;;;;14.48;12.50;;;7.70;99.90;;;;;;4953551;29;20054;-62
2022/06/02 02:25:02;;;;;;;13.27;11.85;;;8.20;99.90;;;;;;4953729;29;20051;-59
2022/06/02 02:28:03;;;;;;;14.32;12.57;;;7.90;99.90;;;;;;4953902;29;20047;-59
2022/06/02 02:30:43;;;;;;;13.90;11.63;;;8.20;99.90;;;;;;4952712;29;20126;-59
2022/06/02 02:33:44;;;;;;;16.98;11.98;;;7.90;99.90;;;;;;4953169;29;20154;-59
2022/06/02 02:36:19;;;;;;;14.15;10.68;;;7.60;99.90;;;;;;4936246;29;20067;-59
2022/06/02 02:39:12;;;;;;;11.98;10.73;;;7.70;99.90;;;;;;4953258;29;20063;-59
2022/06/02 02:42:02;;;;;;;14.65;12.30;;;7.60;99.90;;;;;;4952558;29;20055;-59
2022/06/02 02:44:54;;;;;;;15.07;13.45;;;7.50;99.90;;;;;;4953311;29;20043;-59
2022/06/02 02:47:31;;;;;;;13.88;11.77;;;7.10;99.90;;;;;;4953451;29;20435;-59
2022/06/02 02:50:06;;;;;;;12.75;11.45;;;7.30;99.90;;;;;;4953582;29;20083;-59
2022/06/02 02:52:58;;;;;;;14.77;12.65;;;7.30;99.90;;;;;;4952644;29;20047;-59
2022/06/02 02:55:35;;;;;;;16.25;14.20;;;7.20;99.90;;;;;;4946377;29;20086;-59
2022/06/02 02:58:20;;;;;;;15.80;13.25;;;7.40;99.90;;;;;;4953008;29;20069;-59
2022/06/02 03:01:24;;;;;;;17.55;14.75;;;7.60;99.90;;;;;;4953053;29;20055;-59
2022/06/02 03:04:07;;;;;;;21.92;17.02;;;7.30;99.90;;;;;;4952970;29;20059;-59
2022/06/02 03:06:41;;;;;;;17.52;14.98;;;7.40;99.90;;;;;;4935923;29;20058;-59
2022/06/02 03:09:21;;;;;;;19.05;14.70;;;7.60;99.90;;;;;;4953268;29;20062;-59
2022/06/02 03:11:52;;;;;;;19.27;15.00;;;7.30;99.90;;;;;;4953251;29;20074;-59
2022/06/02 03:14:18;;;;;;;17.10;14.55;;;;;;;;;;4935670;29;20051;-59
2022/06/02 03:16:50;;;;;;;16.90;13.82;;;7.40;99.90;;;;;;4953082;29;20043;-59
2022/06/02 03:19:37;;;;;;;16.75;14.70;;;7.30;99.90;;;;;;4953335;29;20082;-59
2022/06/02 03:22:40;;;;;;;16.98;14.88;;;7.40;99.90;;;;;;4953279;29;20059;-59
2022/06/02 03:25:18;;;;;;;20.48;15.90;;;7.20;99.90;;;;;;4954727;28;20448;-60
2022/06/02 03:27:54;;;;;;;19.13;15.05;;;7.30;99.90;;;;;;4956844;29;20043;-59
2022/06/02 03:30:23;;;;;;;19.73;16.58;;;7.30;99.90;;;;;;4956317;29;20059;-59
2022/06/02 03:33:08;;;;;;;17.08;14.95;;;7.80;99.90;;;;;;4956338;29;20063;-59
2022/06/02 03:35:43;;;;;;;21.40;17.67;;;6.70;99.90;;;;;;4956095;29;20051;-59
2022/06/02 03:38:38;;;;;;;24.08;18.88;;;7.60;99.90;;;;;;4956500;29;20063;-59
2022/06/02 03:41:19;;;;;;;27.77;20.20;;;8.00;99.90;;;;;;4939813;29;20055;-59
2022/06/02 03:43:57;;;;;;;24.63;19.92;;;7.30;99.90;;;;;;4955807;29;20055;-59
2022/06/02 03:46:38;;;;;;;24.80;19.73;;;7.60;99.90;;;;;;4955822;29;20055;-59
2022/06/02 03:49:22;;;;;;;24.95;19.05;;;7.60;99.90;;;;;;4956112;29;20052;-59
2022/06/02 03:52:09;;;;;;;18.70;16.17;;;8.00;99.90;;;;;;4956104;29;20067;-59
2022/06/02 03:54:53;;;;;;;16.98;14.75;;;7.50;99.90;;;;;;4955882;29;20057;-59
2022/06/02 03:57:19;;;;;;;15.73;13.55;;;;;;;;;;4956113;29;20051;-59
2022/06/02 04:00:03;;;;;;;16.40;12.80;;;7.20;99.90;;;;;;4955595;29;20092;-59
2022/06/02 04:02:39;;;;;;;15.75;12.85;;;6.70;99.90;;;;;;4955518;29;20063;-59
2022/06/02 04:05:20;;;;;;;13.63;11.75;;;7.90;99.90;;;;;;4955769;29;20059;-59
2022/06/02 04:08:16;;;;;;;15.05;11.25;;;7.70;99.90;;;;;;4955656;29;20051;-59
2022/06/02 04:11:06;;;;;;;15.35;13.00;;;7.70;99.90;;;;;;4955735;29;20051;-59
2022/06/02 04:13:44;;;;;;;13.15;11.75;;;7.40;99.90;;;;;;4955815;29;20134;-59
2022/06/02 04:16:16;;;;;;;13.52;12.10;;;7.80;99.90;;;;;;4938427;29;20415;-59
2022/06/02 04:20:34;;;;;;;14.90;12.73;;;8.00;99.90;;;;;;4955506;29;20075;-59
2022/06/02 04:22:04;;;;;;;13.75;11.93;;;8.40;99.90;;;;;;4954958;29;20063;-59
2022/06/02 04:24:45;;;;;;;15.07;13.38;;;7.80;99.90;;;;;;4937994;29;20426;-59
2022/06/02 04:27:20;;;;;;;14.52;12.82;;;8.40;99.90;;;;;;4955447;29;20058;-59
2022/06/02 04:29:55;;;;;;;15.70;13.13;;;8.20;99.90;;;;;;4938102;29;20550;-59
2022/06/02 04:32:28;;;;;;;18.10;13.60;;;8.40;99.90;;;;;;4955609;29;20250;-59
2022/06/02 04:35:19;;;;;;;11.95;10.75;;;10.10;99.90;;;;;;4937679;29;20537;-60
2022/06/02 04:38:05;;;;;;;12.68;11.00;;;11.50;99.90;;;;;;4954584;29;20051;-59
2022/06/02 04:40:33;;;;;;;;;;;11.70;99.90;;;;;;4938124;29;20182;-60
2022/06/02 04:43:37;;;;;;;10.88;9.13;;;13.70;99.90;;;;;;4954661;29;20488;-59
2022/06/02 04:46:27;;;;;;;11.10;9.57;;;15.20;99.90;;;;;;4955039;29;20118;-60
2022/06/02 04:49:08;;;;;;;8.90;7.57;;;16.30;99.90;;;;;;4955248;29;20062;-60
2022/06/02 04:51:42;;;;;;;9.65;8.63;;;17.00;99.90;;;;;;4955181;29;20069;-60
2022/06/02 04:54:39;;;;;;;9.25;8.13;;;17.70;99.90;;;;;;4954623;29;20087;-60
2022/06/02 04:57:16;;;;;;;10.63;9.50;;;18.30;99.90;;;;;;4954892;29;20051;-60
2022/06/02 05:00:18;;;;;;;12.98;8.90;;;19.10;99.90;;;;;;4954792;29;20108;-60
2022/06/02 05:03:00;;;;;;;11.55;9.07;;;19.30;99.90;;;;;;4933732;29;20059;-60
2022/06/02 05:06:08;;;;;;;10.75;9.15;;;19.60;99.90;;;;;;4954734;29;20058;-60
2022/06/02 05:08:46;;;;;;;9.20;8.23;;;20.40;99.90;;;;;;4940642;29;20050;-60
2022/06/02 05:12:00;;;;;;;9.77;8.55;;;21.10;99.90;;;;;;4954484;29;20058;-60
2022/06/02 05:14:33;;;;;;;8.63;7.72;;;21.20;94.20;;;;;;4954565;29;20047;-60
2022/06/02 05:17:46;;;;;;;12.15;8.05;;;22.00;93.00;;;;;;4954481;29;20094;-60
2022/06/02 05:20:36;;;;;;;12.00;8.15;;;22.80;90.50;;;;;;4894799;29;20065;-60
2022/06/02 05:23:17;;;;;;;8.88;7.97;;;22.90;80.00;;;;;;4894686;29;20131;-60
2022/06/02 05:26:31;;;;;;;9.18;7.60;;;23.60;76.40;;;;;;4894591;29;20556;-60
2022/06/02 05:29:17;;;;;;;8.48;7.40;;;24.00;69.10;;;;;;4838923;29;20156;-60
2022/06/02 05:31:59;;;;;;;11.00;7.40;;;24.40;68.40;;;;;;4838998;29;20045;-60
2022/06/02 05:35:06;;;;;;;7.93;6.88;;;24.80;68.30;;;;;;4854401;29;20050;-61
2022/06/02 05:37:40;;;;;;;8.32;7.25;;;25.00;57.40;;;;;;4821005;29;20060;-60
2022/06/02 05:40:24;;;;;;;8.85;7.30;;;25.20;63.40;;;;;;4839151;29;20141;-60
2022/06/02 05:43:20;;;;;;;9.32;7.47;;;25.50;61.60;;;;;;4838877;29;20417;-60
2022/06/02 05:45:57;;;;;;;9.23;7.18;;;25.70;57.40;;;;;;4838811;29;20353;-60
2022/06/02 05:48:40;;;;;;;18.02;11.45;;;26.10;56.70;;;;;;4838488;29;20199;-61
2022/06/02 05:51:33;;;;;;;11.07;7.78;;;26.40;56.60;;;;;;4858965;29;20154;-60
2022/06/02 05:53:59;;;;;;;11.40;7.80;;;26.40;65.00;;;;;;4875657;29;20053;-60
2022/06/02 05:56:46;;;;;;;8.57;7.40;;;26.90;64.10;;;;;;4875710;29;20056;-60
2022/06/02 05:59:14;;;;;;;10.02;7.55;;;26.50;64.20;;;;;;4875828;29;20041;-60
2022/06/02 06:01:42;;;;;;;8.55;7.10;;;26.90;62.00;;;;;;4875351;29;20056;-60
2022/06/02 06:04:17;;;;;;;8.15;7.28;;;26.70;60.90;;;;;;4875491;29;20060;-60
2022/06/02 06:06:59;;;;;;;11.65;8.57;;;26.80;60.30;;;;;;4953344;29;20469;-59
2022/06/02 06:09:49;;;;;;;9.23;7.20;;;27.30;60.10;;;;;;4953736;29;20492;-60
2022/06/02 06:12:42;;;;;;;11.43;6.80;;;27.10;59.20;;;;;;4936618;29;20087;-61
2022/06/02 06:15:15;;;;;;;8.57;6.75;;;27.50;58.00;;;;;;4953976;29;20459;-58
2022/06/02 06:18:03;;;;;;;8.90;6.45;;;27.90;58.00;;;;;;4936526;29;20406;-61
2022/06/02 06:21:06;;;;;;;7.55;6.10;;;28.40;56.70;;;;;;4936287;29;20410;-61
2022/06/02 06:23:47;;;;;;;;;;;28.40;46.50;;;;;;4953708;29;20494;-61
2022/06/02 06:26:27;;;;;;;7.78;5.80;;;28.40;54.70;;;;;;4953617;29;19925;-61
2022/06/02 06:29:13;;;;;;;7.82;6.15;;;28.90;55.50;;;;;;4953260;29;20059;-59
2022/06/02 06:32:14;;;;;;;6.72;5.63;;;29.30;55.30;;;;;;4953642;29;20048;-59
2022/06/02 06:35:01;;;;;;;6.57;5.88;;;28.40;53.90;;;;;;4893807;29;20160;-59
2022/06/02 06:37:53;;;;;;;8.07;6.15;;;28.70;54.70;;;;;;4878531;29;20157;-59
2022/06/02 06:40:52;;;;;;;7.60;6.10;;;27.90;53.40;;;;;;4878257;29;20068;-59
2022/06/02 06:44:00;;;;;;;8.82;6.15;;;27.80;54.10;;;;;;4893719;29;20056;-60
2022/06/02 06:46:49;;;;;;;7.15;5.75;;;28.50;54.30;;;;;;4893849;29;20512;-59
2022/06/02 06:49:15;;;;;;;8.00;5.68;;;28.40;54.30;;;;;;4893626;29;20601;-59
2022/06/02 06:52:11;;;;;;;7.43;5.15;;;28.70;54.40;;;;;;4893644;29;20044;-59
2022/06/02 06:55:06;;;;;;;7.75;4.90;;;28.10;53.50;;;;;;4878098;29;20491;-59
2022/06/02 06:57:50;;;;;;;5.40;4.05;;;28.00;53.30;;;;;;4822684;29;20569;-59
2022/06/02 07:00:28;;;;;;;7.07;3.47;;;27.10;54.90;;;;;;4840400;29;20058;-59
2022/06/02 07:03:30;;;;;;;5.40;4.00;;;26.80;55.80;;;;;;4841518;29;20210;-60
2022/06/02 07:06:07;;;;;;;6.07;3.60;;;26.70;56.50;;;;;;4823023;29;20561;-59
2022/06/02 07:08:36;;;;;;;6.65;4.40;;;26.00;57.60;;;;;;4823056;29;20056;-59
2022/06/02 07:11:07;;;;;;;7.20;3.35;;;24.80;57.40;;;;;;4831540;29;20094;-60
2022/06/02 07:13:44;;;;;;;4.43;3.08;;;24.70;59.30;;;;;;4841299;29;20074;-59
2022/06/02 07:16:55;;;;;;;4.88;3.13;;;24.10;59.50;;;;;;4841541;29;20057;-60
2022/06/02 07:20:02;;;;;;;6.18;2.80;;;24.00;62.80;;;;;;4804917;29;20462;-61
2022/06/02 07:22:54;;;;;;;6.10;3.00;;;23.60;63.50;;;;;;4804707;29;20058;-61
2022/06/02 07:25:41;;;;;;;4.47;2.90;;;23.50;64.80;;;;;;4804824;29;20055;-60
2022/06/02 07:28:27;;;;;;;3.88;2.50;;;22.70;64.70;;;;;;4804659;29;20134;-59
2022/06/02 07:31:42;;;;;;;4.47;2.60;;;22.40;66.50;;;;;;4804606;29;20430;-59
2022/06/02 07:34:13;;;;;;;3.50;2.90;;;22.10;67.50;;;;;;4814819;29;20107;-60
2022/06/02 07:36:57;;;;;;;4.07;2.78;;;21.70;69.30;;;;;;4822617;29;20054;-62
2022/06/02 07:39:36;;;;;;;4.47;2.77;;;21.70;72.60;;;;;;4822865;29;20050;-63
2022/06/02 07:42:11;;;;;;;4.00;2.40;;;21.60;63.10;;;;;;4827229;29;20134;-62
2022/06/02 07:44:58;;;;;;;4.95;2.80;;;21.80;70.60;;;;;;4843977;29;20435;-62
2022/06/02 07:47:42;;;;;;;3.58;2.40;;;21.60;70.00;;;;;;4859254;29;20060;-63
2022/06/02 07:50:27;;;;;;;3.08;2.28;;;21.90;62.10;;;;;;4912134;29;20350;-63
2022/06/02 07:52:53;;;;;;;4.05;2.63;;;20.90;72.50;;;;;;4956011;29;20043;-62
2022/06/02 07:55:27;;;;;;;5.05;2.65;;;20.00;73.40;;;;;;4955925;29;20043;-63
2022/06/02 07:58:02;;;;;;;7.60;2.70;;;20.50;75.60;;;;;;4955896;29;20043;-62
2022/06/02 08:00:38;;;;;;;4.75;2.45;;;20.50;66.60;;;;;;4955349;29;20067;-62
2022/06/02 08:03:09;;;;;;;4.10;2.40;;;20.80;69.10;;;;;;4955535;29;20455;-62
2022/06/02 08:06:11;;;;;;;3.92;2.20;;;21.00;77.30;;;;;;4955776;29;20125;-62
2022/06/02 08:09:08;;;;;;;6.90;2.30;;;21.00;67.10;;;;;;4922436;29;20047;-62
2022/06/02 08:11:57;;;;;;;5.88;2.10;;;21.20;74.60;;;;;;4955619;28;20055;-62
2022/06/02 08:14:45;;;;;;;4.05;2.22;;;21.70;74.00;;;;;;4938079;29;20063;-62
2022/06/02 08:17:22;;;;;;;3.00;2.20;;;21.30;74.10;;;;;;4955555;29;20138;-62
2022/06/02 08:20:01;;;;;;;4.90;2.35;;;21.10;64.50;;;;;;4955626;29;20055;-62
2022/06/02 08:22:54;;;;;;;3.63;2.10;;;20.80;66.30;;;;;;4955224;29;20170;-63
2022/06/02 08:25:23;;;;;;;5.90;2.28;;;20.60;76.10;;;;;;4955176;29;20097;-62
2022/06/02 08:28:23;;;;;;;6.85;2.28;;;20.60;78.40;;;;;;4938363;29;20122;-62
2022/06/02 08:30:52;;;;;;;3.40;2.20;;;20.80;78.50;;;;;;4955031;29;20047;-63
2022/06/02 08:33:56;;;;;;;3.78;2.30;;;20.80;70.10;;;;;;4955252;29;20533;-62
2022/06/02 08:36:30;;;;;;;3.33;2.00;;;20.80;68.50;;;;;;4954563;29;20082;-62
2022/06/02 08:39:05;;;;;;;4.53;1.90;;;20.50;67.80;;;;;;4938027;29;20051;-62
2022/06/02 08:41:58;;;;;;;3.40;1.90;;;19.80;77.10;;;;;;4955267;29;20083;-63
2022/06/02 08:44:43;;;;;;;6.05;2.40;;;20.20;69.80;;;;;;4937635;29;20056;-62
2022/06/02 08:48:02;;;;;;;3.85;2.13;;;20.80;77.50;;;;;;4937597;29;20166;-64
2022/06/02 08:50:58;;;;;;;3.80;2.00;;;20.70;74.10;;;;;;4926030;29;20059;-62
2022/06/02 08:53:59;;;;;;;3.35;2.20;;;21.10;66.90;;;;;;4937651;29;20490;-60
2022/06/02 08:56:53;;;;;;;5.90;2.10;;;20.60;72.90;;;;;;4954901;29;20053;-61
2022/06/02 08:59:43;;;;;;;6.15;1.75;;;20.50;65.00;;;;;;4937668;29;20098;-60
2022/06/02 09:02:49;;;;;;;4.38;2.30;;;20.20;68.90;;;;;;4937484;29;20055;-60
2022/06/02 09:05:35;;;;;;;4.00;2.50;;;20.20;67.90;;;;;;4954587;29;20043;-60
2022/06/02 09:08:14;;;;;;;9.20;2.53;;;20.50;77.10;;;;;;4954617;29;20521;-60
2022/06/02 09:10:48;;;;;;;8.15;2.53;;;21.40;83.80;;;;;;4954542;29;20130;-61
2022/06/02 09:13:33;;;;;;;7.53;2.20;;;21.10;70.50;;;;;;4954355;29;20102;-60
2022/06/02 09:16:20;;;;;;;3.97;2.17;;;20.70;67.30;;;;;;4954615;29;20047;-60
2022/06/02 09:19:00;;;;;;;6.95;2.20;;;21.00;68.50;;;;;;4954553;29;20051;-60
2022/06/02 09:21:28;;;;;;;4.60;2.38;;;20.60;69.30;;;;;;4954671;28;20095;-60
2022/06/02 09:24:23;;;;;;;4.90;2.38;;;20.40;71.40;;;;;;4953931;29;20066;-60
2022/06/02 09:27:20;;;;;;;3.95;2.30;;;20.20;77.60;;;;;;4954456;29;20047;-60
2022/06/02 09:29:52;;;;;;;5.40;2.20;;;21.10;80.80;;;;;;4954329;29;20053;-60
2022/06/02 09:32:48;;;;;;;4.60;2.20;;;20.30;72.50;;;;;;4954245;29;20047;-61
2022/06/02 09:35:20;;;;;;;2.88;2.00;;;20.40;78.00;;;;;;4954019;29;20130;-60
2022/06/02 09:37:49;;;;;;;3.95;2.13;;;20.30;72.60;;;;;;4953707;29;20061;-61
2022/06/02 09:40:43;;;;;;;6.20;2.60;;;20.30;71.30;;;;;;4954354;29;20110;-61
2022/06/02 09:43:43;;;;;;;3.25;2.15;;;20.50;73.40;;;;;;4937231;29;20375;-61
2022/06/02 09:46:27;;;;;;;4.45;2.35;;;20.50;72.40;;;;;;4936666;29;20050;-60
2022/06/02 09:49:18;;;;;;;4.35;2.22;;;19.90;77.60;;;;;;4954084;29;20054;-60
2022/06/02 09:51:54;;;;;;;3.67;2.08;;;20.10;72.50;;;;;;4953884;29;20047;-60
2022/06/02 09:54:35;;;;;;;3.90;2.25;;;20.10;79.70;;;;;;4953886;29;20129;-61
2022/06/02 10:00:17;;;;;;;3.80;2.50;;;20.10;75.10;;;;;;4953872;29;20070;-60
2022/06/02 10:03:12;;;;;;;5.55;2.40;;;19.90;77.70;;;;;;4953733;29;20074;-60
2022/06/02 10:06:09;;;;;;;4.03;2.63;;;19.80;85.00;;;;;;4954002;29;20107;-61
2022/06/02 10:08:49;;;;;;;4.40;2.53;;;19.80;80.30;;;;;;4953833;29;20051;-61
2022/06/02 10:11:26;;;;;;;5.88;2.10;;;20.10;75.30;;;;;;4953760;29;20047;-61
2022/06/02 10:14:18;;;;;;;8.95;2.25;;;20.20;79.80;;;;;;4953403;29;20134;-61
2022/06/02 10:17:08;;;;;;;6.00;2.45;;;20.40;79.20;;;;;;4929138;29;20054;-61
2022/06/02 10:19:59;;;;;;;3.33;2.30;;;20.70;75.20;;;;;;4953728;29;20051;-61
2022/06/02 10:22:46;;;;;;;3.85;2.50;;;20.90;72.50;;;;;;4953842;29;20063;-61
2022/06/02 10:25:39;;;;;;;6.63;2.33;;;21.00;69.70;;;;;;4953845;29;20457;-62
2022/06/02 10:28:36;;;;;;;5.32;2.45;;;21.00;71.40;;;;;;4953776;29;20059;-61
2022/06/02 10:31:42;;;;;;;7.40;2.75;;;21.10;70.80;;;;;;4953490;29;20345;-61
2022/06/02 10:34:42;;;;;;;4.25;2.53;;;21.20;71.00;;;;;;4953628;28;20562;-61
2022/06/02 10:37:20;;;;;;;3.70;2.20;;;21.20;70.70;;;;;;4940107;29;20062;-62
2022/06/02 10:40:02;;;;;;;4.00;2.22;;;21.50;70.10;;;;;;4957244;29;20051;-61
2022/06/02 10:43:04;;;;;;;3.97;2.40;;;21.60;66.90;;;;;;4957283;29;20097;-62
2022/06/02 10:45:42;;;;;;;4.43;2.10;;;21.70;67.30;;;;;;4957272;29;20106;-61
2022/06/02 10:48:46;;;;;;;3.15;2.00;;;21.80;65.30;;;;;;4957517;29;20055;-62
2022/06/02 10:51:32;;;;;;;3.42;1.90;;;21.90;66.20;;;;;;4956906;29;20055;-62
2022/06/02 10:54:27;;;;;;;3.40;2.15;;;21.90;64.70;;;;;;4957331;29;20086;-61
2022/06/02 10:57:40;;;;;;;3.40;1.80;;;21.90;64.20;;;;;;4957070;29;20055;-61
2022/06/02 11:00:30;;;;;;;4.57;2.05;;;22.00;64.40;;;;;;4956628;29;20062;-61
2022/06/02 11:03:17;;;;;;;3.47;2.13;;;22.10;63.70;;;;;;4939321;29;20149;-61
2022/06/02 11:05:49;;;;;;;5.20;2.40;;;22.00;64.50;;;;;;4956980;29;20369;-62
2022/06/02 11:08:22;;;;;;;4.15;2.35;;;21.70;64.90;;;;;;4956810;29;20079;-61
2022/06/02 11:11:15;;;;;;;4.07;1.95;;;21.10;77.50;;;;;;4956701;29;20187;-62
2022/06/02 11:13:53;;;;;;;6.40;2.40;;;20.80;75.80;;;;;;4956881;29;20114;-61
2022/06/02 11:16:27;;;;;;;3.50;2.20;;;20.80;69.40;;;;;;4957343;29;20451;-62
2022/06/02 11:19:25;;;;;;;5.65;2.30;;;20.90;70.70;;;;;;4956721;29;20059;-61
2022/06/02 11:22:30;;;;;;;3.58;2.00;;;20.90;69.30;;;;;;4942441;29;20051;-62
2022/06/02 11:25:10;;;;;;;3.70;2.00;;;21.10;70.40;;;;;;4945662;29;20134;-61
2022/06/02 11:28:00;;;;;;;3.97;2.00;;;21.30;74.80;;;;;;4956276;29;20118;-62
2022/06/02 11:30:43;;;;;;;3.53;2.08;;;21.30;67.20;;;;;;4939169;29;20051;-62
2022/06/02 11:33:28;;;;;;;3.10;2.03;;;21.50;66.70;;;;;;4956405;29;20256;-62
2022/06/02 11:36:12;;;;;;;3.75;2.10;;;21.60;66.90;;;;;;4956343;29;20050;-62
2022/06/02 11:39:06;;;;;;;3.30;2.00;;;23.50;71.60;;;;;;4956390;29;20043;-62
2022/06/02 11:42:01;;;;;;;4.55;2.05;;;21.90;64.20;;;;;;4955976;29;20052;-62
2022/06/02 11:44:26;;;;;;;4.32;2.13;;;22.00;65.30;;;;;;4956190;29;20130;-61
2022/06/02 11:47:13;;;;;;;4.47;2.10;;;21.70;70.60;;;;;;4955365;28;20466;-62
2022/06/02 11:49:41;;;;;;;4.20;2.15;;;21.70;64.00;;;;;;4955859;29;20047;-62
2022/06/02 11:52:23;;;;;;;2.95;2.00;;;21.80;64.40;;;;;;4956222;29;20082;-62
2022/06/02 11:55:20;;;;;;;4.03;1.90;;;21.50;67.00;;;;;;4938769;29;20086;-62
2022/06/02 11:57:55;;;;;;;4.05;1.80;;;21.60;60.10;;;;;;4938722;29;20501;-62
2022/06/02 12:00:44;;;;;;;3.80;1.80;;;21.60;63.60;;;;;;4955494;29;20449;-61
2022/06/02 12:03:25;;;;;;;3.15;1.90;;;21.80;63.90;;;;;;4955721;29;20135;-61
2022/06/02 12:06:19;;;;;;;3.38;1.90;;;22.00;63.00;;;;;;4955771;29;20063;-62
2022/06/02 12:08:53;;;;;;;3.80;2.00;;;22.20;61.30;;;;;;4955567;29;20075;-62
2022/06/02 12:11:50;;;;;;;3.88;2.33;;;22.40;61.90;;;;;;4956023;29;20437;-62
2022/06/02 12:14:30;;;;;;;3.25;2.00;;;22.60;60.80;;;;;;4956244;29;20047;-63
2022/06/02 12:16:59;;;;;;;3.13;1.88;;;22.70;59.90;;;;;;4955636;29;20435;-65
2022/06/02 12:19:58;;;;;;;4.18;1.85;;;22.90;60.10;;;;;;4955283;29;20490;-65
2022/06/02 12:22:45;;;;;;;3.40;2.00;;;23.00;59.00;;;;;;4955425;29;20051;-64
2022/06/02 12:25:17;;;;;;;3.22;1.63;;;23.20;59.00;;;;;;4955461;29;20055;-64
2022/06/02 12:28:16;;;;;;;4.55;1.80;;;23.40;59.50;;;;;;4938000;29;20114;-65
2022/06/02 12:33:48;;;;;;;2.25;1.70;;;23.20;58.10;;;;;;4914132;29;20056;-61
2022/06/02 12:36:17;;;;;;;3.85;1.80;;;22.90;59.70;;;;;;4916493;29;20048;-62
2022/06/02 12:38:55;;;;;;;3.80;1.98;;;22.60;59.90;;;;;;4917165;29;20044;-62
2022/06/02 12:42:11;;;;;;;3.10;2.10;;;22.40;58.40;;;;;;4884049;29;20072;-61
2022/06/02 12:44:52;;;;;;;4.28;1.92;;;22.40;57.30;;;;;;4916432;29;20123;-61
2022/06/02 12:47:39;;;;;;;2.45;1.75;;;22.50;59.40;;;;;;4899779;29;20091;-61
2022/06/02 12:50:23;;;;;;;2.78;1.70;;;22.80;59.00;;;;;;4914652;29;20044;-61
2022/06/02 12:53:07;;;;;;;2.28;1.50;;;23.00;58.00;;;;;;4916055;29;20040;-61
2022/06/02 12:56:14;;;;;;;2.65;1.63;;;23.30;53.30;;;;;;4916678;29;20484;-61
2022/06/02 12:58:39;;;;;;;2.10;1.50;;;23.40;56.40;;;;;;4820484;29;20046;-64
2022/06/02 13:01:47;;;;;;;2.13;1.50;;;23.50;56.60;;;;;;4807340;29;20058;-64
2022/06/02 13:04:31;;;;;;;2.05;1.60;;;23.70;55.20;;;;;;4813650;29;20133;-64
2022/06/02 13:07:13;;;;;;;4.40;1.60;;;23.90;55.80;;;;;;4822382;29;20121;-64
2022/06/02 13:10:01;;;;;;;3.47;1.80;;;24.00;56.50;;;;;;4822259;29;20053;-64
2022/06/02 13:12:30;;;;;;;4.03;1.83;;;24.00;55.50;;;;;;4822167;29;20527;-61
2022/06/02 13:15:07;;;;;;;2.97;1.70;;;24.20;55.00;;;;;;4821865;29;20054;-61
2022/06/02 13:17:48;;;;;;;3.50;2.53;;;24.30;53.80;;;;;;4822451;29;20054;-61
2022/06/02 13:20:17;;;;;;;3.20;1.60;;;24.40;54.30;;;;;;4821900;29;20046;-61
2022/06/02 13:23:16;;;;;;;3.38;1.65;;;24.50;53.90;;;;;;4821779;29;20058;-61
2022/06/02 13:25:54;;;;;;;3.20;1.65;;;24.50;54.00;;;;;;4819965;29;20065;-64
2022/06/02 13:28:44;;;;;;;3.65;1.50;;;24.70;53.30;;;;;;4822297;29;20054;-64
2022/06/02 13:31:41;;;;;;;1.95;1.40;;;24.60;54.30;;;;;;4821792;29;20054;-64
2022/06/02 13:34:24;;;;;;;1.88;1.33;;;24.80;55.30;;;;;;4897513;29;20172;-62
2022/06/02 13:37:21;;;;;;;2.38;1.63;;;25.00;55.30;;;;;;4897878;29;20048;-61
2022/06/02 13:40:32;;;;;;;4.05;2.35;;;25.10;54.60;;;;;;4897456;29;20132;-61
2022/06/02 13:43:22;;;;;;;3.20;1.50;;;24.90;52.40;;;;;;4897446;29;20135;-61
2022/06/02 13:46:34;;;;;;;1.75;1.40;;;24.90;53.60;;;;;;4897789;29;20049;-61
2022/06/02 13:49:38;;;;;;;1.67;1.23;;;25.00;53.20;;;;;;4821863;29;20062;-61
2022/06/02 13:52:29;;;;;;;3.85;1.50;;;24.80;51.10;;;;;;4819978;29;20054;-61
2022/06/02 13:58:18;;;;;;;2.55;1.40;;;24.50;53.50;;;;;;4821731;29;20054;-62
2022/06/02 14:00:58;;;;;;;2.33;1.58;;;24.60;52.50;;;;;;4821562;29;20058;-61
2022/06/02 14:03:45;;;;;;;2.92;1.55;;;24.60;52.90;;;;;;4822013;29;20504;-61
2022/06/02 14:06:14;;;;;;;2.35;1.40;;;24.60;53.30;;;;;;4821686;29;20058;-61
2022/06/02 14:09:16;;;;;;;3.08;1.60;;;24.70;53.20;;;;;;4821378;29;20062;-61
2022/06/02 14:11:51;;;;;;;2.65;1.52;;;22.90;48.80;;;;;;4821923;29;20066;-62
2022/06/02 14:14:54;;;;;;;2.47;1.35;;;24.90;52.00;;;;;;4821444;29;20081;-64
2022/06/02 14:17:42;;;;;;;2.15;1.40;;;25.00;53.20;;;;;;4821489;29;20058;-64
2022/06/02 14:20:42;;;;;;;1.73;1.30;;;25.10;50.90;;;;;;4821172;29;20050;-61
2022/06/02 14:23:28;;;;;;;1.67;1.52;;;25.20;52.00;;;;;;4821271;29;20501;-62
2022/06/02 14:26:31;;;;;;;2.75;1.50;;;25.30;51.00;;;;;;4896918;29;20120;-61
2022/06/02 14:29:03;;;;;;;2.63;1.40;;;25.40;51.20;;;;;;4896877;29;20107;-61
2022/06/02 14:31:43;;;;;;;1.55;1.20;;;25.30;50.60;;;;;;4901896;29;20044;-61
2022/06/02 14:34:29;;;;;;;2.88;1.52;;;25.40;50.50;;;;;;4916330;29;20067;-64
2022/06/02 14:36:59;;;;;;;;;;;25.50;49.10;;;;;;4916389;29;20139;-62